Terminal Aerodrome Forecast
Issued by NWS Central Illinois

Home | Current Version | Previous Version | Text Only | Print | Product List | Glossary On
Versions: 1 2 3 4 5 6 7 8 9 10 11 12 13 14 15 16 17 18 19
000
FTUS43 KILX 191100 RRA
TAFSPI
TAF
KSPI 191141Z 1912/2012 07003KT P6SM SCT010 OVC040
     FM191500 VRB03KT P6SM OVC045
     FM200100 VRB03KT P6SM OVC040=

USA.gov is the U.S. government's official web portal to all federal, state and local government web resources and services.